sensor_id;sensor_type;location;lat;lon;timestamp;P1;durP1;ratioP1;P2;durP2;ratioP2
71769;SDS011;59605;52.122;5.420;2022-08-19T00:01:54;1.40;;;1.00;;
71769;SDS011;59605;52.122;5.420;2022-08-19T00:04:26;1.33;;;0.80;;
71769;SDS011;59605;52.122;5.420;2022-08-19T00:06:57;1.45;;;0.80;;
71769;SDS011;59605;52.122;5.420;2022-08-19T00:09:24;0.98;;;0.88;;
71769;SDS011;59605;52.122;5.420;2022-08-19T00:11:52;1.50;;;0.90;;
71769;SDS011;59605;52.122;5.420;2022-08-19T00:14:21;1.73;;;1.00;;
71769;SDS011;59605;52.122;5.420;2022-08-19T00:16:49;1.50;;;1.10;;
71769;SDS011;59605;52.122;5.420;2022-08-19T00:19:17;1.48;;;0.85;;
71769;SDS011;59605;52.122;5.420;2022-08-19T00:21:43;1.80;;;1.25;;
71769;SDS011;59605;52.122;5.420;2022-08-19T00:24:11;1.83;;;1.00;;
71769;SDS011;59605;52.122;5.420;2022-08-19T00:26:39;1.37;;;0.83;;
71769;SDS011;59605;52.122;5.420;2022-08-19T00:29:08;1.02;;;0.82;;
71769;SDS011;59605;52.122;5.420;2022-08-19T00:31:36;2.00;;;1.13;;
71769;SDS011;59605;52.122;5.420;2022-08-19T00:34:02;1.85;;;1.50;;
71769;SDS011;59605;52.122;5.420;2022-08-19T00:36:30;1.20;;;0.95;;
71769;SDS011;59605;52.122;5.420;2022-08-19T00:38:58;1.93;;;1.00;;
71769;SDS011;59605;52.122;5.420;2022-08-19T00:41:25;1.60;;;1.30;;
71769;SDS011;59605;52.122;5.420;2022-08-19T00:46:26;2.15;;;1.20;;
71769;SDS011;59605;52.122;5.420;2022-08-19T00:48:53;1.83;;;1.30;;
71769;SDS011;59605;52.122;5.420;2022-08-19T00:51:21;2.43;;;1.30;;
71769;SDS011;59605;52.122;5.420;2022-08-19T00:53:53;1.95;;;1.20;;
71769;SDS011;59605;52.122;5.420;2022-08-19T00:56:22;1.55;;;1.20;;
71769;SDS011;59605;52.122;5.420;2022-08-19T00:58:49;1.55;;;1.08;;
71769;SDS011;59605;52.122;5.420;2022-08-19T01:01:16;2.28;;;1.33;;
71769;SDS011;59605;52.122;5.420;2022-08-19T01:03:42;1.37;;;0.90;;
71769;SDS011;59605;52.122;5.420;2022-08-19T01:06:24;1.40;;;1.05;;
71769;SDS011;59605;52.122;5.420;2022-08-19T01:08:51;1.42;;;1.27;;
71769;SDS011;59605;52.122;5.420;2022-08-19T01:11:19;2.28;;;1.38;;
71769;SDS011;59605;52.122;5.420;2022-08-19T01:13:45;1.95;;;1.23;;
71769;SDS011;59605;52.122;5.420;2022-08-19T01:16:15;1.27;;;1.17;;
71769;SDS011;59605;52.122;5.420;2022-08-19T01:18:43;1.98;;;1.40;;
71769;SDS011;59605;52.122;5.420;2022-08-19T01:21:27;5.18;;;2.38;;
71769;SDS011;59605;52.122;5.420;2022-08-19T01:23:58;1.20;;;1.10;;
71769;SDS011;59605;52.122;5.420;2022-08-19T01:26:25;1.88;;;0.90;;
71769;SDS011;59605;52.122;5.420;2022-08-19T01:28:54;2.47;;;1.23;;
71769;SDS011;59605;52.122;5.420;2022-08-19T01:31:26;1.83;;;1.27;;
71769;SDS011;59605;52.122;5.420;2022-08-19T01:33:58;1.17;;;1.00;;
71769;SDS011;59605;52.122;5.420;2022-08-19T01:36:33;1.20;;;0.85;;
71769;SDS011;59605;52.122;5.420;2022-08-19T01:39:04;1.73;;;1.20;;
71769;SDS011;59605;52.122;5.420;2022-08-19T01:41:35;1.20;;;1.10;;
71769;SDS011;59605;52.122;5.420;2022-08-19T01:44:02;3.20;;;0.98;;
71769;SDS011;59605;52.122;5.420;2022-08-19T01:46:44;0.93;;;0.70;;
71769;SDS011;59605;52.122;5.420;2022-08-19T01:49:13;1.38;;;1.27;;
71769;SDS011;59605;52.122;5.420;2022-08-19T01:51:40;1.10;;;0.90;;
71769;SDS011;59605;52.122;5.420;2022-08-19T01:54:07;0.87;;;0.80;;
71769;SDS011;59605;52.122;5.420;2022-08-19T01:56:34;1.70;;;0.80;;
71769;SDS011;59605;52.122;5.420;2022-08-19T01:59:03;1.23;;;0.77;;
71769;SDS011;59605;52.122;5.420;2022-08-19T02:01:32;1.50;;;0.88;;
71769;SDS011;59605;52.122;5.420;2022-08-19T02:04:01;0.82;;;0.60;;
71769;SDS011;59605;52.122;5.420;2022-08-19T02:06:28;1.37;;;0.80;;
71769;SDS011;59605;52.122;5.420;2022-08-19T02:08:55;0.93;;;0.80;;
71769;SDS011;59605;52.122;5.420;2022-08-19T02:11:27;1.05;;;0.85;;
71769;SDS011;59605;52.122;5.420;2022-08-19T02:13:57;1.30;;;0.77;;
71769;SDS011;59605;52.122;5.420;2022-08-19T02:16:26;0.80;;;0.73;;
71769;SDS011;59605;52.122;5.420;2022-08-19T02:18:52;1.77;;;0.70;;
71769;SDS011;59605;52.122;5.420;2022-08-19T02:21:19;2.53;;;0.98;;
71769;SDS011;59605;52.122;5.420;2022-08-19T02:23:48;1.65;;;0.68;;
71769;SDS011;59605;52.122;5.420;2022-08-19T02:26:15;0.85;;;0.57;;
71769;SDS011;59605;52.122;5.420;2022-08-19T02:28:43;1.52;;;0.63;;
71769;SDS011;59605;52.122;5.420;2022-08-19T02:31:10;0.70;;;0.60;;
71769;SDS011;59605;52.122;5.420;2022-08-19T02:33:37;0.90;;;0.70;;
71769;SDS011;59605;52.122;5.420;2022-08-19T02:36:05;2.35;;;0.80;;
71769;SDS011;59605;52.122;5.420;2022-08-19T02:38:33;0.85;;;0.70;;
71769;SDS011;59605;52.122;5.420;2022-08-19T02:41:02;1.80;;;0.70;;
71769;SDS011;59605;52.122;5.420;2022-08-19T02:43:37;1.07;;;0.70;;
71769;SDS011;59605;52.122;5.420;2022-08-19T02:46:29;0.80;;;0.70;;
71769;SDS011;59605;52.122;5.420;2022-08-19T02:48:59;1.13;;;0.70;;
71769;SDS011;59605;52.122;5.420;2022-08-19T02:51:32;0.70;;;0.50;;
71769;SDS011;59605;52.122;5.420;2022-08-19T02:54:01;0.85;;;0.70;;
71769;SDS011;59605;52.122;5.420;2022-08-19T02:56:28;2.07;;;0.80;;
71769;SDS011;59605;52.122;5.420;2022-08-19T02:58:57;1.52;;;1.00;;
71769;SDS011;59605;52.122;5.420;2022-08-19T03:01:25;1.80;;;0.90;;
71769;SDS011;59605;52.122;5.420;2022-08-19T03:03:54;1.27;;;0.93;;
71769;SDS011;59605;52.122;5.420;2022-08-19T03:06:21;1.15;;;1.05;;
71769;SDS011;59605;52.122;5.420;2022-08-19T03:08:48;1.67;;;1.57;;
71769;SDS011;59605;52.122;5.420;2022-08-19T03:11:17;2.53;;;1.35;;
71769;SDS011;59605;52.122;5.420;2022-08-19T03:13:45;1.75;;;1.00;;
71769;SDS011;59605;52.122;5.420;2022-08-19T03:16:12;1.40;;;1.30;;
71769;SDS011;59605;52.122;5.420;2022-08-19T03:18:38;1.80;;;1.23;;
71769;SDS011;59605;52.122;5.420;2022-08-19T03:21:05;1.50;;;1.40;;
71769;SDS011;59605;52.122;5.420;2022-08-19T03:23:37;1.65;;;1.30;;
71769;SDS011;59605;52.122;5.420;2022-08-19T03:26:04;1.25;;;1.15;;
71769;SDS011;59605;52.122;5.420;2022-08-19T03:28:42;1.60;;;1.30;;
71769;SDS011;59605;52.122;5.420;2022-08-19T03:31:24;3.28;;;1.42;;
71769;SDS011;59605;52.122;5.420;2022-08-19T03:34:14;1.63;;;1.20;;
71769;SDS011;59605;52.122;5.420;2022-08-19T03:36:43;1.50;;;1.05;;
71769;SDS011;59605;52.122;5.420;2022-08-19T03:39:10;1.92;;;1.30;;
71769;SDS011;59605;52.122;5.420;2022-08-19T03:41:40;1.00;;;0.90;;
71769;SDS011;59605;52.122;5.420;2022-08-19T03:44:14;1.50;;;1.23;;
71769;SDS011;59605;52.122;5.420;2022-08-19T03:46:45;1.07;;;0.90;;
71769;SDS011;59605;52.122;5.420;2022-08-19T03:49:13;1.95;;;1.40;;
71769;SDS011;59605;52.122;5.420;2022-08-19T03:51:43;2.42;;;1.17;;
71769;SDS011;59605;52.122;5.420;2022-08-19T03:54:11;1.60;;;1.08;;
71769;SDS011;59605;52.122;5.420;2022-08-19T03:56:39;1.38;;;0.90;;
71769;SDS011;59605;52.122;5.420;2022-08-19T03:59:08;1.77;;;1.03;;
71769;SDS011;59605;52.122;5.420;2022-08-19T04:01:37;2.33;;;0.93;;
71769;SDS011;59605;52.122;5.420;2022-08-19T04:04:03;3.88;;;0.90;;
71769;SDS011;59605;52.122;5.420;2022-08-19T04:06:31;1.63;;;0.82;;
71769;SDS011;59605;52.122;5.420;2022-08-19T04:09:00;2.38;;;0.90;;
71769;SDS011;59605;52.122;5.420;2022-08-19T04:11:37;0.70;;;0.60;;
71769;SDS011;59605;52.122;5.420;2022-08-19T04:14:12;1.75;;;0.80;;
71769;SDS011;59605;52.122;5.420;2022-08-19T04:16:40;0.68;;;0.65;;
71769;SDS011;59605;52.122;5.420;2022-08-19T04:19:07;0.88;;;0.60;;
71769;SDS011;59605;52.122;5.420;2022-08-19T04:21:34;0.95;;;0.73;;
71769;SDS011;59605;52.122;5.420;2022-08-19T04:24:00;0.60;;;0.60;;
71769;SDS011;59605;52.122;5.420;2022-08-19T04:26:30;1.83;;;0.90;;
71769;SDS011;59605;52.122;5.420;2022-08-19T04:29:03;1.00;;;0.90;;
71769;SDS011;59605;52.122;5.420;2022-08-19T04:31:38;2.25;;;0.52;;
71769;SDS011;59605;52.122;5.420;2022-08-19T04:34:06;0.90;;;0.70;;
71769;SDS011;59605;52.122;5.420;2022-08-19T04:36:37;1.07;;;0.90;;
71769;SDS011;59605;52.122;5.420;2022-08-19T04:39:07;4.45;;;0.73;;
71769;SDS011;59605;52.122;5.420;2022-08-19T04:41:39;1.85;;;0.60;;
71769;SDS011;59605;52.122;5.420;2022-08-19T04:44:24;2.03;;;0.60;;
71769;SDS011;59605;52.122;5.420;2022-08-19T04:46:51;3.70;;;0.65;;
71769;SDS011;59605;52.122;5.420;2022-08-19T04:49:19;2.30;;;0.80;;
71769;SDS011;59605;52.122;5.420;2022-08-19T04:51:48;1.75;;;0.73;;
71769;SDS011;59605;52.122;5.420;2022-08-19T04:54:16;4.05;;;0.90;;
71769;SDS011;59605;52.122;5.420;2022-08-19T04:57:04;1.50;;;0.75;;
71769;SDS011;59605;52.122;5.420;2022-08-19T04:59:33;4.78;;;0.80;;
71769;SDS011;59605;52.122;5.420;2022-08-19T05:01:59;2.77;;;0.83;;
71769;SDS011;59605;52.122;5.420;2022-08-19T05:04:26;4.90;;;0.80;;
71769;SDS011;59605;52.122;5.420;2022-08-19T05:06:52;1.67;;;0.70;;
71769;SDS011;59605;52.122;5.420;2022-08-19T05:09:26;4.10;;;2.17;;
71769;SDS011;59605;52.122;5.420;2022-08-19T05:12:13;1.73;;;1.02;;
71769;SDS011;59605;52.122;5.420;2022-08-19T05:14:39;6.70;;;1.30;;
71769;SDS011;59605;52.122;5.420;2022-08-19T05:17:06;3.05;;;1.27;;
71769;SDS011;59605;52.122;5.420;2022-08-19T05:19:52;3.60;;;1.20;;
71769;SDS011;59605;52.122;5.420;2022-08-19T05:22:37;6.15;;;1.10;;
71769;SDS011;59605;52.122;5.420;2022-08-19T05:25:05;3.47;;;0.80;;
71769;SDS011;59605;52.122;5.420;2022-08-19T05:27:38;1.53;;;1.00;;
71769;SDS011;59605;52.122;5.420;2022-08-19T05:30:05;1.48;;;1.10;;
71769;SDS011;59605;52.122;5.420;2022-08-19T05:32:32;1.92;;;1.02;;
71769;SDS011;59605;52.122;5.420;2022-08-19T05:34:58;1.33;;;1.10;;
71769;SDS011;59605;52.122;5.420;2022-08-19T05:37:25;3.63;;;1.20;;
71769;SDS011;59605;52.122;5.420;2022-08-19T05:39:53;1.40;;;1.20;;
71769;SDS011;59605;52.122;5.420;2022-08-19T05:42:21;3.72;;;1.30;;
71769;SDS011;59605;52.122;5.420;2022-08-19T05:44:49;2.60;;;1.13;;
71769;SDS011;59605;52.122;5.420;2022-08-19T05:47:16;2.38;;;1.38;;
71769;SDS011;59605;52.122;5.420;2022-08-19T05:49:45;2.50;;;1.35;;
71769;SDS011;59605;52.122;5.420;2022-08-19T05:52:13;3.63;;;1.43;;
71769;SDS011;59605;52.122;5.420;2022-08-19T05:54:44;1.30;;;1.20;;
71769;SDS011;59605;52.122;5.420;2022-08-19T05:57:16;2.67;;;1.30;;
71769;SDS011;59605;52.122;5.420;2022-08-19T05:59:43;1.15;;;1.05;;
71769;SDS011;59605;52.122;5.420;2022-08-19T06:02:12;3.72;;;1.25;;
71769;SDS011;59605;52.122;5.420;2022-08-19T06:04:40;2.00;;;1.17;;
71769;SDS011;59605;52.122;5.420;2022-08-19T06:07:08;1.92;;;1.17;;
71769;SDS011;59605;52.122;5.420;2022-08-19T06:09:38;1.58;;;0.88;;
71769;SDS011;59605;52.122;5.420;2022-08-19T06:12:06;3.20;;;0.98;;
71769;SDS011;59605;52.122;5.420;2022-08-19T06:14:33;2.97;;;0.98;;
71769;SDS011;59605;52.122;5.420;2022-08-19T06:17:07;4.83;;;1.10;;
71769;SDS011;59605;52.122;5.420;2022-08-19T06:19:34;1.50;;;0.98;;
71769;SDS011;59605;52.122;5.420;2022-08-19T06:22:06;2.67;;;0.90;;
71769;SDS011;59605;52.122;5.420;2022-08-19T06:24:33;2.97;;;1.08;;
71769;SDS011;59605;52.122;5.420;2022-08-19T06:26:59;4.15;;;1.50;;
71769;SDS011;59605;52.122;5.420;2022-08-19T06:29:27;1.83;;;1.67;;
71769;SDS011;59605;52.122;5.420;2022-08-19T06:31:55;4.40;;;1.77;;
71769;SDS011;59605;52.122;5.420;2022-08-19T06:34:23;6.22;;;1.30;;
71769;SDS011;59605;52.122;5.420;2022-08-19T06:36:51;3.05;;;1.55;;
71769;SDS011;59605;52.122;5.420;2022-08-19T06:39:26;2.50;;;1.65;;
71769;SDS011;59605;52.122;5.420;2022-08-19T06:41:56;4.03;;;1.50;;
71769;SDS011;59605;52.122;5.420;2022-08-19T06:44:25;3.53;;;1.65;;
71769;SDS011;59605;52.122;5.420;2022-08-19T06:46:56;2.90;;;1.80;;
71769;SDS011;59605;52.122;5.420;2022-08-19T06:49:23;2.38;;;1.80;;
71769;SDS011;59605;52.122;5.420;2022-08-19T06:51:49;3.40;;;1.92;;
71769;SDS011;59605;52.122;5.420;2022-08-19T06:54:17;4.30;;;1.87;;
71769;SDS011;59605;52.122;5.420;2022-08-19T06:56:45;8.73;;;4.80;;
71769;SDS011;59605;52.122;5.420;2022-08-19T06:59:13;7.05;;;4.38;;
71769;SDS011;59605;52.122;5.420;2022-08-19T07:01:45;8.20;;;4.60;;
71769;SDS011;59605;52.122;5.420;2022-08-19T07:04:15;7.32;;;3.70;;
71769;SDS011;59605;52.122;5.420;2022-08-19T07:06:44;4.73;;;3.03;;
71769;SDS011;59605;52.122;5.420;2022-08-19T07:09:20;8.45;;;4.47;;
71769;SDS011;59605;52.122;5.420;2022-08-19T07:11:47;10.30;;;4.60;;
71769;SDS011;59605;52.122;5.420;2022-08-19T07:14:16;19.15;;;8.75;;
71769;SDS011;59605;52.122;5.420;2022-08-19T07:16:46;24.05;;;9.90;;
71769;SDS011;59605;52.122;5.420;2022-08-19T07:19:14;10.03;;;6.40;;
71769;SDS011;59605;52.122;5.420;2022-08-19T07:21:44;8.75;;;5.55;;
71769;SDS011;59605;52.122;5.420;2022-08-19T07:24:12;5.53;;;4.28;;
71769;SDS011;59605;52.122;5.420;2022-08-19T07:26:40;29.23;;;15.27;;
71769;SDS011;59605;52.122;5.420;2022-08-19T07:29:08;20.75;;;13.40;;
71769;SDS011;59605;52.122;5.420;2022-08-19T07:31:38;17.40;;;10.43;;
71769;SDS011;59605;52.122;5.420;2022-08-19T07:34:09;14.57;;;7.90;;
71769;SDS011;59605;52.122;5.420;2022-08-19T07:36:40;14.18;;;7.72;;
71769;SDS011;59605;52.122;5.420;2022-08-19T07:39:10;11.02;;;7.40;;
71769;SDS011;59605;52.122;5.420;2022-08-19T07:41:38;13.57;;;8.35;;
71769;SDS011;59605;52.122;5.420;2022-08-19T07:44:05;15.00;;;8.40;;
71769;SDS011;59605;52.122;5.420;2022-08-19T07:46:34;12.32;;;7.05;;
71769;SDS011;59605;52.122;5.420;2022-08-19T07:49:04;13.18;;;7.88;;
71769;SDS011;59605;52.122;5.420;2022-08-19T07:51:31;14.85;;;7.32;;
71769;SDS011;59605;52.122;5.420;2022-08-19T07:54:02;14.75;;;7.03;;
71769;SDS011;59605;52.122;5.420;2022-08-19T07:56:28;13.43;;;7.80;;
71769;SDS011;59605;52.122;5.420;2022-08-19T07:58:55;13.80;;;8.35;;
71769;SDS011;59605;52.122;5.420;2022-08-19T08:01:22;12.48;;;7.57;;
71769;SDS011;59605;52.122;5.420;2022-08-19T08:03:52;11.68;;;7.43;;
71769;SDS011;59605;52.122;5.420;2022-08-19T08:06:39;10.95;;;7.68;;
71769;SDS011;59605;52.122;5.420;2022-08-19T08:09:25;12.17;;;7.10;;
71769;SDS011;59605;52.122;5.420;2022-08-19T08:12:03;10.98;;;7.85;;
71769;SDS011;59605;52.122;5.420;2022-08-19T08:14:53;10.63;;;7.75;;
71769;SDS011;59605;52.122;5.420;2022-08-19T08:17:22;9.50;;;7.45;;
71769;SDS011;59605;52.122;5.420;2022-08-19T08:20:11;11.75;;;7.95;;
71769;SDS011;59605;52.122;5.420;2022-08-19T08:22:42;12.40;;;8.30;;
71769;SDS011;59605;52.122;5.420;2022-08-19T08:25:28;10.75;;;8.40;;
71769;SDS011;59605;52.122;5.420;2022-08-19T08:27:59;9.35;;;7.38;;
71769;SDS011;59605;52.122;5.420;2022-08-19T08:30:26;7.57;;;6.57;;
71769;SDS011;59605;52.122;5.420;2022-08-19T08:32:58;10.52;;;6.85;;
71769;SDS011;59605;52.122;5.420;2022-08-19T08:35:24;9.60;;;7.30;;
71769;SDS011;59605;52.122;5.420;2022-08-19T08:37:52;9.35;;;7.07;;
71769;SDS011;59605;52.122;5.420;2022-08-19T08:40:22;10.25;;;7.25;;
71769;SDS011;59605;52.122;5.420;2022-08-19T08:42:58;12.45;;;6.68;;
71769;SDS011;59605;52.122;5.420;2022-08-19T08:45:38;7.35;;;6.32;;
71769;SDS011;59605;52.122;5.420;2022-08-19T08:48:31;12.37;;;7.30;;
71769;SDS011;59605;52.122;5.420;2022-08-19T08:51:05;11.40;;;7.75;;
71769;SDS011;59605;52.122;5.420;2022-08-19T08:53:37;8.32;;;6.80;;
71769;SDS011;59605;52.122;5.420;2022-08-19T08:56:07;9.60;;;7.05;;
71769;SDS011;59605;52.122;5.420;2022-08-19T09:01:25;10.80;;;6.70;;
71769;SDS011;59605;52.122;5.420;2022-08-19T09:03:56;8.90;;;6.43;;
71769;SDS011;59605;52.122;5.420;2022-08-19T09:09:30;7.40;;;6.13;;
71769;SDS011;59605;52.122;5.420;2022-08-19T09:12:12;9.98;;;5.70;;
71769;SDS011;59605;52.122;5.420;2022-08-19T09:15:00;7.70;;;6.77;;
71769;SDS011;59605;52.122;5.420;2022-08-19T09:17:30;7.40;;;6.28;;
71769;SDS011;59605;52.122;5.420;2022-08-19T09:22:36;11.45;;;6.28;;
71769;SDS011;59605;52.122;5.420;2022-08-19T09:25:05;6.60;;;5.97;;
71769;SDS011;59605;52.122;5.420;2022-08-19T09:27:33;7.07;;;5.77;;
71769;SDS011;59605;52.122;5.420;2022-08-19T09:30:10;7.20;;;6.07;;
71769;SDS011;59605;52.122;5.420;2022-08-19T09:32:40;6.60;;;5.82;;
71769;SDS011;59605;52.122;5.420;2022-08-19T09:35:08;6.88;;;5.70;;
71769;SDS011;59605;52.122;5.420;2022-08-19T09:37:35;8.18;;;6.05;;
71769;SDS011;59605;52.122;5.420;2022-08-19T09:40:02;9.03;;;5.77;;
71769;SDS011;59605;52.122;5.420;2022-08-19T09:42:30;6.13;;;5.38;;
71769;SDS011;59605;52.122;5.420;2022-08-19T09:45:00;6.63;;;5.90;;
71769;SDS011;59605;52.122;5.420;2022-08-19T09:47:30;8.05;;;6.68;;
71769;SDS011;59605;52.122;5.420;2022-08-19T09:49:58;6.38;;;5.68;;
71769;SDS011;59605;52.122;5.420;2022-08-19T09:52:24;7.93;;;5.97;;
71769;SDS011;59605;52.122;5.420;2022-08-19T09:54:58;7.82;;;5.60;;
71769;SDS011;59605;52.122;5.420;2022-08-19T09:57:24;5.85;;;5.25;;
71769;SDS011;59605;52.122;5.420;2022-08-19T09:59:50;6.63;;;5.50;;
71769;SDS011;59605;52.122;5.420;2022-08-19T10:02:17;5.80;;;5.20;;
71769;SDS011;59605;52.122;5.420;2022-08-19T10:04:47;7.43;;;6.00;;
71769;SDS011;59605;52.122;5.420;2022-08-19T10:07:32;6.38;;;5.78;;
71769;SDS011;59605;52.122;5.420;2022-08-19T10:10:03;6.60;;;5.07;;
71769;SDS011;59605;52.122;5.420;2022-08-19T10:12:33;7.22;;;5.10;;
71769;SDS011;59605;52.122;5.420;2022-08-19T10:15:00;6.88;;;5.28;;
71769;SDS011;59605;52.122;5.420;2022-08-19T10:17:27;6.30;;;5.70;;
71769;SDS011;59605;52.122;5.420;2022-08-19T10:19:58;6.13;;;5.32;;
71769;SDS011;59605;52.122;5.420;2022-08-19T10:22:26;6.32;;;5.72;;
71769;SDS011;59605;52.122;5.420;2022-08-19T10:24:52;9.43;;;5.57;;
71769;SDS011;59605;52.122;5.420;2022-08-19T10:27:19;8.70;;;5.65;;
71769;SDS011;59605;52.122;5.420;2022-08-19T10:29:46;9.17;;;5.80;;
71769;SDS011;59605;52.122;5.420;2022-08-19T10:32:13;7.95;;;5.47;;
71769;SDS011;59605;52.122;5.420;2022-08-19T10:34:41;13.48;;;5.82;;
71769;SDS011;59605;52.122;5.420;2022-08-19T10:37:14;9.65;;;5.78;;
71769;SDS011;59605;52.122;5.420;2022-08-19T10:39:54;12.70;;;5.40;;
71769;SDS011;59605;52.122;5.420;2022-08-19T10:42:20;10.53;;;5.60;;
71769;SDS011;59605;52.122;5.420;2022-08-19T10:44:47;7.43;;;5.40;;
71769;SDS011;59605;52.122;5.420;2022-08-19T10:47:17;8.55;;;5.65;;
71769;SDS011;59605;52.122;5.420;2022-08-19T10:49:54;11.82;;;6.18;;
71769;SDS011;59605;52.122;5.420;2022-08-19T10:52:42;7.18;;;5.47;;
71769;SDS011;59605;52.122;5.420;2022-08-19T10:55:15;9.50;;;5.90;;
71769;SDS011;59605;52.122;5.420;2022-08-19T10:58:02;7.70;;;5.65;;
71769;SDS011;59605;52.122;5.420;2022-08-19T11:00:28;9.25;;;5.78;;
71769;SDS011;59605;52.122;5.420;2022-08-19T11:02:57;11.15;;;7.13;;
71769;SDS011;59605;52.122;5.420;2022-08-19T11:05:23;8.48;;;5.70;;
71769;SDS011;59605;52.122;5.420;2022-08-19T11:07:49;8.97;;;5.73;;
71769;SDS011;59605;52.122;5.420;2022-08-19T11:10:17;6.22;;;4.97;;
71769;SDS011;59605;52.122;5.420;2022-08-19T11:12:47;7.20;;;5.80;;
71769;SDS011;59605;52.122;5.420;2022-08-19T11:15:14;8.15;;;5.63;;
71769;SDS011;59605;52.122;5.420;2022-08-19T11:17:40;6.15;;;5.45;;
71769;SDS011;59605;52.122;5.420;2022-08-19T11:20:12;6.03;;;5.43;;
71769;SDS011;59605;52.122;5.420;2022-08-19T11:22:40;10.90;;;6.20;;
71769;SDS011;59605;52.122;5.420;2022-08-19T11:25:08;6.70;;;5.82;;
71769;SDS011;59605;52.122;5.420;2022-08-19T11:27:39;13.95;;;6.05;;
71769;SDS011;59605;52.122;5.420;2022-08-19T11:30:09;11.65;;;5.85;;
71769;SDS011;59605;52.122;5.420;2022-08-19T11:32:38;9.83;;;5.90;;
71769;SDS011;59605;52.122;5.420;2022-08-19T11:35:12;8.77;;;6.32;;
71769;SDS011;59605;52.122;5.420;2022-08-19T11:37:39;8.10;;;6.10;;
71769;SDS011;59605;52.122;5.420;2022-08-19T11:40:06;9.20;;;5.93;;
71769;SDS011;59605;52.122;5.420;2022-08-19T11:42:33;6.57;;;5.93;;
71769;SDS011;59605;52.122;5.420;2022-08-19T11:45:19;6.87;;;5.60;;
71769;SDS011;59605;52.122;5.420;2022-08-19T11:47:45;7.85;;;6.43;;
71769;SDS011;59605;52.122;5.420;2022-08-19T11:50:13;7.15;;;6.40;;
71769;SDS011;59605;52.122;5.420;2022-08-19T11:52:40;9.02;;;6.45;;
71769;SDS011;59605;52.122;5.420;2022-08-19T11:55:07;9.27;;;6.38;;
71769;SDS011;59605;52.122;5.420;2022-08-19T11:57:34;8.67;;;6.37;;
71769;SDS011;59605;52.122;5.420;2022-08-19T12:00:00;8.80;;;6.20;;
71769;SDS011;59605;52.122;5.420;2022-08-19T12:02:27;7.28;;;6.57;;
71769;SDS011;59605;52.122;5.420;2022-08-19T12:04:53;6.95;;;6.22;;
71769;SDS011;59605;52.122;5.420;2022-08-19T12:07:20;6.68;;;6.07;;
71769;SDS011;59605;52.122;5.420;2022-08-19T12:09:46;8.13;;;6.70;;
71769;SDS011;59605;52.122;5.420;2022-08-19T12:12:13;10.57;;;6.70;;
71769;SDS011;59605;52.122;5.420;2022-08-19T12:14:40;8.60;;;6.07;;
71769;SDS011;59605;52.122;5.420;2022-08-19T12:17:07;7.80;;;6.60;;
71769;SDS011;59605;52.122;5.420;2022-08-19T12:19:35;6.70;;;6.00;;
71769;SDS011;59605;52.122;5.420;2022-08-19T12:22:03;6.80;;;6.10;;
71769;SDS011;59605;52.122;5.420;2022-08-19T12:24:30;8.02;;;6.55;;
71769;SDS011;59605;52.122;5.420;2022-08-19T12:26:58;11.68;;;6.38;;
71769;SDS011;59605;52.122;5.420;2022-08-19T12:29:28;8.85;;;6.30;;
71769;SDS011;59605;52.122;5.420;2022-08-19T12:31:56;9.40;;;6.68;;
71769;SDS011;59605;52.122;5.420;2022-08-19T12:34:29;9.93;;;7.20;;
71769;SDS011;59605;52.122;5.420;2022-08-19T12:36:57;8.90;;;6.75;;
71769;SDS011;59605;52.122;5.420;2022-08-19T12:39:25;11.55;;;7.10;;
71769;SDS011;59605;52.122;5.420;2022-08-19T12:41:51;10.75;;;6.53;;
71769;SDS011;59605;52.122;5.420;2022-08-19T12:44:20;7.35;;;6.38;;
71769;SDS011;59605;52.122;5.420;2022-08-19T12:46:57;8.27;;;6.43;;
71769;SDS011;59605;52.122;5.420;2022-08-19T12:49:24;9.63;;;6.75;;
71769;SDS011;59605;52.122;5.420;2022-08-19T12:52:10;10.50;;;6.43;;
71769;SDS011;59605;52.122;5.420;2022-08-19T12:54:41;8.50;;;7.05;;
71769;SDS011;59605;52.122;5.420;2022-08-19T12:57:09;7.72;;;6.38;;
71769;SDS011;59605;52.122;5.420;2022-08-19T12:59:36;7.40;;;6.70;;
71769;SDS011;59605;52.122;5.420;2022-08-19T13:02:04;6.63;;;6.03;;
71769;SDS011;59605;52.122;5.420;2022-08-19T13:04:32;7.55;;;6.28;;
71769;SDS011;59605;52.122;5.420;2022-08-19T13:07:02;7.15;;;6.45;;
71769;SDS011;59605;52.122;5.420;2022-08-19T13:09:29;7.22;;;6.32;;
71769;SDS011;59605;52.122;5.420;2022-08-19T13:11:55;6.93;;;6.23;;
71769;SDS011;59605;52.122;5.420;2022-08-19T13:14:22;7.90;;;6.82;;
71769;SDS011;59605;52.122;5.420;2022-08-19T13:16:49;7.10;;;6.40;;
71769;SDS011;59605;52.122;5.420;2022-08-19T13:19:15;9.60;;;7.30;;
71769;SDS011;59605;52.122;5.420;2022-08-19T13:21:42;8.50;;;6.00;;
71769;SDS011;59605;52.122;5.420;2022-08-19T13:24:08;8.60;;;6.83;;
71769;SDS011;59605;52.122;5.420;2022-08-19T13:26:34;6.82;;;6.22;;
71769;SDS011;59605;52.122;5.420;2022-08-19T13:29:01;9.05;;;6.07;;
71769;SDS011;59605;52.122;5.420;2022-08-19T13:31:46;8.55;;;6.28;;
71769;SDS011;59605;52.122;5.420;2022-08-19T13:34:33;6.75;;;6.15;;
71769;SDS011;59605;52.122;5.420;2022-08-19T13:37:01;7.70;;;6.93;;
71769;SDS011;59605;52.122;5.420;2022-08-19T13:39:29;7.47;;;6.45;;
71769;SDS011;59605;52.122;5.420;2022-08-19T13:41:58;6.25;;;5.68;;
71769;SDS011;59605;52.122;5.420;2022-08-19T13:44:26;6.82;;;6.13;;
71769;SDS011;59605;52.122;5.420;2022-08-19T13:47:05;6.97;;;6.07;;
71769;SDS011;59605;52.122;5.420;2022-08-19T13:49:33;8.60;;;6.27;;
71769;SDS011;59605;52.122;5.420;2022-08-19T13:52:02;8.18;;;6.07;;
71769;SDS011;59605;52.122;5.420;2022-08-19T13:54:29;7.03;;;5.95;;
71769;SDS011;59605;52.122;5.420;2022-08-19T13:56:56;7.50;;;5.80;;
71769;SDS011;59605;52.122;5.420;2022-08-19T13:59:22;8.02;;;6.15;;
71769;SDS011;59605;52.122;5.420;2022-08-19T14:01:49;6.37;;;5.77;;
71769;SDS011;59605;52.122;5.420;2022-08-19T14:04:15;7.70;;;6.80;;
71769;SDS011;59605;52.122;5.420;2022-08-19T14:06:42;6.15;;;5.45;;
71769;SDS011;59605;52.122;5.420;2022-08-19T14:09:08;6.82;;;5.82;;
71769;SDS011;59605;52.122;5.420;2022-08-19T14:11:35;6.88;;;6.18;;
71769;SDS011;59605;52.122;5.420;2022-08-19T14:14:01;6.87;;;5.33;;
71769;SDS011;59605;52.122;5.420;2022-08-19T14:16:27;8.38;;;5.57;;
71769;SDS011;59605;52.122;5.420;2022-08-19T14:18:56;6.40;;;5.80;;
71769;SDS011;59605;52.122;5.420;2022-08-19T14:21:23;6.10;;;5.60;;
71769;SDS011;59605;52.122;5.420;2022-08-19T14:23:51;6.20;;;5.60;;
71769;SDS011;59605;52.122;5.420;2022-08-19T14:26:19;6.03;;;5.13;;
71769;SDS011;59605;52.122;5.420;2022-08-19T14:28:46;5.70;;;5.05;;
71769;SDS011;59605;52.122;5.420;2022-08-19T14:31:14;6.22;;;5.28;;
71769;SDS011;59605;52.122;5.420;2022-08-19T14:33:45;6.97;;;5.40;;
71769;SDS011;59605;52.122;5.420;2022-08-19T14:36:12;7.20;;;5.43;;
71769;SDS011;59605;52.122;5.420;2022-08-19T14:38:39;6.27;;;4.97;;
71769;SDS011;59605;52.122;5.420;2022-08-19T14:41:07;6.28;;;5.15;;
71769;SDS011;59605;52.122;5.420;2022-08-19T14:43:35;6.45;;;5.10;;
71769;SDS011;59605;52.122;5.420;2022-08-19T14:46:01;5.50;;;4.93;;
71769;SDS011;59605;52.122;5.420;2022-08-19T14:48:28;7.32;;;5.28;;
71769;SDS011;59605;52.122;5.420;2022-08-19T14:50:54;5.70;;;5.10;;
71769;SDS011;59605;52.122;5.420;2022-08-19T14:53:21;5.75;;;5.07;;
71769;SDS011;59605;52.122;5.420;2022-08-19T14:55:47;6.93;;;4.85;;
71769;SDS011;59605;52.122;5.420;2022-08-19T14:58:14;8.35;;;4.88;;
71769;SDS011;59605;52.122;5.420;2022-08-19T15:00:55;6.82;;;4.88;;
71769;SDS011;59605;52.122;5.420;2022-08-19T15:03:23;6.80;;;4.60;;
71769;SDS011;59605;52.122;5.420;2022-08-19T15:05:50;4.65;;;4.25;;
71769;SDS011;59605;52.122;5.420;2022-08-19T15:08:17;7.07;;;4.60;;
71769;SDS011;59605;52.122;5.420;2022-08-19T15:10:43;4.93;;;4.32;;
71769;SDS011;59605;52.122;5.420;2022-08-19T15:13:09;5.18;;;3.95;;